Time;durP1;ratioP1;P1;durP2;ratioP2;P2;SDS_P1;SDS_P2;PMS_P1;PMS_P2;Temp;Humidity;BMP_temperature;BMP_pressure;BME280_temperature;BME280_humidity;BME280_pressure;Samples;Min_cycle;Max_cycle;Signal;HPM_P1;HPM_P2
2023/07/06 00:02:25;;;;;;;23.42;21.85;;;18.90;99.90;;;;;;5027208;28;20045;-75
2023/07/06 00:04:52;;;;;;;18.02;16.55;;;18.90;99.90;;;;;;5027658;28;20049;-75
2023/07/06 00:07:20;;;;;;;16.83;15.35;;;18.80;99.90;;;;;;5026854;28;20045;-76
2023/07/06 00:09:48;;;;;;;19.67;18.42;;;18.70;99.90;;;;;;5027884;28;20030;-75
2023/07/06 00:12:15;;;;;;;13.95;12.95;;;18.70;99.90;;;;;;5012847;28;20045;-75
2023/07/06 00:14:41;;;;;;;13.32;12.27;;;18.60;99.90;;;;;;5013302;28;20391;-75
2023/07/06 00:17:12;;;;;;;13.95;12.85;;;18.60;99.90;;;;;;4996266;28;20050;-75
2023/07/06 00:19:39;;;;;;;16.98;15.68;;;18.60;99.90;;;;;;5007692;28;20038;-75
2023/07/06 00:22:06;;;;;;;17.80;16.25;;;18.60;99.90;;;;;;4992624;28;20037;-75
2023/07/06 00:24:32;;;;;;;17.08;15.68;;;18.50;99.90;;;;;;5008128;28;20039;-75
2023/07/06 00:26:59;;;;;;;13.48;12.45;;;18.50;99.90;;;;;;4991581;28;20045;-75
2023/07/06 00:29:27;;;;;;;14.63;13.63;;;18.50;99.90;;;;;;4993227;28;20464;-75
2023/07/06 00:32:03;;;;;;;14.20;12.98;;;18.40;99.90;;;;;;5007290;28;20038;-75
2023/07/06 00:34:36;;;;;;;15.10;13.93;;;18.40;99.90;;;;;;5026270;28;20052;-75
2023/07/06 00:37:02;;;;;;;11.25;10.10;;;18.30;99.90;;;;;;5026417;28;20053;-75
2023/07/06 00:39:28;;;;;;;12.80;11.90;;;18.20;99.90;;;;;;5012486;28;20423;-75
2023/07/06 00:41:54;;;;;;;13.70;12.60;;;18.20;99.90;;;;;;5012382;28;20030;-75
2023/07/06 00:44:50;;;;;;;13.25;11.88;;;18.30;99.90;;;;;;5012404;28;20041;-75
2023/07/06 00:47:27;;;;;;;13.07;11.52;;;18.30;99.90;;;;;;5012127;28;20041;-75
2023/07/06 00:49:54;;;;;;;13.98;12.77;;;18.40;99.90;;;;;;5007413;28;20042;-75
2023/07/06 00:52:21;;;;;;;14.00;12.68;;;18.40;99.90;;;;;;5009274;28;20037;-75
2023/07/06 00:54:48;;;;;;;15.60;14.27;;;18.40;99.90;;;;;;5027672;28;20026;-75
2023/07/06 00:57:15;;;;;;;20.55;19.05;;;18.30;99.90;;;;;;5027374;28;20030;-75
2023/07/06 00:59:41;;;;;;;15.60;14.48;;;18.20;99.90;;;;;;5027566;28;20049;-75
2023/07/06 01:02:09;;;;;;;13.57;12.23;;;18.10;99.90;;;;;;5026746;28;20038;-75
2023/07/06 01:04:35;;;;;;;10.93;9.95;;;18.10;99.90;;;;;;5027155;28;20038;-76
2023/07/06 01:07:02;;;;;;;13.93;12.93;;;18.00;99.90;;;;;;5010839;28;20037;-75
2023/07/06 01:09:29;;;;;;;11.32;10.30;;;18.00;99.90;;;;;;5012578;28;20042;-75
2023/07/06 01:11:56;;;;;;;9.98;9.07;;;18.10;99.90;;;;;;5011921;28;20029;-75
2023/07/06 01:14:22;;;;;;;12.77;11.68;;;18.10;99.90;;;;;;5010836;28;20022;-75
2023/07/06 01:16:52;;;;;;;13.73;10.80;;;18.10;99.90;;;;;;5011404;28;20053;-75
2023/07/06 01:19:55;;;;;;;10.38;9.57;;;18.10;99.90;;;;;;5043530;28;20030;-75
2023/07/06 01:22:40;;;;;;;11.65;10.45;;;18.00;99.90;;;;;;5011851;28;20030;-75
2023/07/06 01:25:21;;;;;;;12.93;11.93;;;18.00;99.90;;;;;;5012389;28;20034;-75
2023/07/06 01:27:50;;;;;;;;;;;17.80;99.90;;;;;;5012518;28;20038;-75
2023/07/06 01:30:45;;;;;;;11.20;10.13;;;17.70;99.90;;;;;;5026792;28;19905;-75
2023/07/06 01:33:18;;;;;;;12.55;11.48;;;17.80;99.90;;;;;;5025308;28;20022;-75
2023/07/06 01:36:01;;;;;;;12.13;10.88;;;17.80;99.90;;;;;;5026889;28;20034;-75
2023/07/06 01:38:27;;;;;;;13.52;12.25;;;17.90;99.90;;;;;;5025476;28;20037;-75
2023/07/06 01:40:53;;;;;;;13.88;10.52;;;17.80;99.90;;;;;;5043641;28;20022;-75
2023/07/06 01:43:20;;;;;;;11.23;10.32;;;17.80;99.90;;;;;;5012086;28;20030;-75
2023/07/06 01:45:47;;;;;;;11.23;10.30;;;17.70;99.90;;;;;;5044833;28;20030;-76
2023/07/06 01:48:13;;;;;;;12.15;11.05;;;17.70;99.90;;;;;;5015147;28;20467;-75
2023/07/06 01:51:08;;;;;;;11.73;10.73;;;17.70;99.90;;;;;;5013948;28;20041;-75
2023/07/06 01:53:49;;;;;;;14.68;13.57;;;17.70;99.90;;;;;;5030698;28;20026;-75
2023/07/06 01:56:19;;;;;;;;;;;17.70;99.90;;;;;;5015599;28;20030;-75
2023/07/06 01:58:54;;;;;;;14.07;12.52;;;17.60;99.90;;;;;;5014911;28;19914;-75
2023/07/06 02:01:26;;;;;;;13.00;11.90;;;17.60;99.90;;;;;;5027466;28;20042;-75
2023/07/06 02:03:53;;;;;;;12.90;11.70;;;17.60;99.90;;;;;;5020200;28;20030;-76
2023/07/06 02:06:19;;;;;;;11.13;10.13;;;17.50;99.90;;;;;;5027583;28;20033;-75
2023/07/06 02:08:45;;;;;;;15.32;14.20;;;17.60;99.90;;;;;;5024418;28;20029;-75
2023/07/06 02:11:14;;;;;;;15.57;14.20;;;17.50;99.90;;;;;;5002796;28;20041;-75
2023/07/06 02:13:40;;;;;;;10.82;10.02;;;17.50;99.90;;;;;;5028763;28;20022;-75
2023/07/06 02:16:07;;;;;;;12.90;11.73;;;17.50;99.90;;;;;;5028475;28;20030;-75
2023/07/06 02:18:36;;;;;;;10.52;9.48;;;17.50;99.90;;;;;;5013535;28;20382;-75
2023/07/06 02:21:02;;;;;;;12.43;11.23;;;17.50;99.90;;;;;;5013417;28;20030;-75
2023/07/06 02:23:29;;;;;;;13.65;12.65;;;17.40;99.90;;;;;;5045577;28;20037;-74
2023/07/06 02:25:55;;;;;;;10.52;8.65;;;17.40;99.90;;;;;;5012007;28;20046;-75
2023/07/06 02:28:22;;;;;;;11.68;10.63;;;17.30;99.90;;;;;;5013577;28;20033;-75
2023/07/06 02:30:49;;;;;;;11.13;9.25;;;17.30;99.90;;;;;;5044462;28;20038;-75
2023/07/06 02:33:18;;;;;;;10.85;9.00;;;17.20;99.90;;;;;;5028390;28;20018;-75
2023/07/06 02:35:47;;;;;;;12.80;11.60;;;17.20;99.90;;;;;;5027230;28;20502;-76
2023/07/06 02:38:17;;;;;;;9.48;8.65;;;17.20;99.90;;;;;;5027893;28;20467;-75
2023/07/06 02:40:43;;;;;;;14.48;13.27;;;17.20;99.90;;;;;;5046054;28;20030;-75
2023/07/06 02:43:09;;;;;;;12.50;11.38;;;17.20;99.90;;;;;;5014513;28;20038;-76
2023/07/06 02:45:36;;;;;;;15.27;12.02;;;17.10;99.90;;;;;;5045497;28;20577;-75
2023/07/06 02:48:04;;;;;;;11.25;10.23;;;17.00;99.90;;;;;;5045867;28;20525;-75
2023/07/06 02:50:30;;;;;;;13.77;12.57;;;17.00;99.90;;;;;;5012827;28;20159;-76
2023/07/06 02:52:56;;;;;;;13.88;12.70;;;17.00;99.90;;;;;;5014431;28;20037;-75
2023/07/06 02:55:23;;;;;;;13.80;12.68;;;17.00;99.90;;;;;;5013902;28;20030;-75
2023/07/06 02:57:49;;;;;;;12.75;11.20;;;17.00;99.90;;;;;;5012033;28;20191;-75
2023/07/06 03:00:17;;;;;;;10.65;9.55;;;16.80;99.90;;;;;;5028364;28;20530;-76
2023/07/06 03:02:49;;;;;;;12.43;11.20;;;16.80;99.90;;;;;;5013045;28;20034;-75
2023/07/06 03:05:18;;;;;;;12.88;11.85;;;16.80;99.90;;;;;;5028786;28;20042;-75
2023/07/06 03:07:44;;;;;;;14.60;13.43;;;16.80;99.90;;;;;;5029052;28;20048;-76
2023/07/06 03:10:10;;;;;;;10.13;8.98;;;16.80;99.90;;;;;;5013762;28;20038;-75
2023/07/06 03:12:39;;;;;;;9.18;8.38;;;16.80;99.90;;;;;;5013986;28;20033;-75
2023/07/06 03:15:13;;;;;;;10.55;9.52;;;16.80;99.90;;;;;;5027933;28;20053;-76
2023/07/06 03:17:39;;;;;;;11.73;9.85;;;16.80;99.90;;;;;;5008886;28;20033;-75
2023/07/06 03:20:15;;;;;;;10.68;8.07;;;16.80;99.90;;;;;;4993299;28;20049;-75
2023/07/06 03:22:44;;;;;;;10.77;9.65;;;16.80;99.90;;;;;;4994251;28;20041;-75
2023/07/06 03:25:10;;;;;;;9.95;9.00;;;16.70;99.90;;;;;;4994275;28;20046;-75
2023/07/06 03:27:36;;;;;;;11.45;10.35;;;16.60;99.90;;;;;;5013715;28;20041;-76
2023/07/06 03:30:10;;;;;;;14.45;13.05;;;16.50;99.90;;;;;;5045215;28;20034;-76
2023/07/06 03:32:37;;;;;;;11.00;9.98;;;16.50;99.90;;;;;;5027579;28;20034;-76
2023/07/06 03:35:04;;;;;;;13.70;10.38;;;16.50;99.90;;;;;;5013391;28;20022;-75
2023/07/06 03:37:30;;;;;;;16.65;15.05;;;16.40;99.90;;;;;;5028001;28;20034;-75
2023/07/06 03:39:56;;;;;;;11.30;9.15;;;16.40;99.90;;;;;;4993963;28;20026;-75
2023/07/06 03:42:22;;;;;;;9.45;8.35;;;16.50;99.90;;;;;;5011583;28;20033;-75
2023/07/06 03:44:49;;;;;;;12.57;8.68;;;16.50;99.90;;;;;;5012977;28;20060;-75
2023/07/06 03:47:15;;;;;;;10.32;9.32;;;16.40;99.90;;;;;;5012670;28;20100;-76
2023/07/06 03:49:41;;;;;;;10.10;9.20;;;16.40;99.90;;;;;;5011869;28;20045;-76
2023/07/06 03:52:07;;;;;;;8.95;8.00;;;16.40;99.90;;;;;;5013114;28;20038;-74
2023/07/06 03:54:36;;;;;;;10.52;9.45;;;16.50;99.90;;;;;;5013192;28;20383;-75
2023/07/06 03:57:05;;;;;;;10.18;8.23;;;16.40;99.90;;;;;;5013339;28;20382;-75
2023/07/06 03:59:33;;;;;;;11.77;9.63;;;16.30;99.90;;;;;;5011780;28;20379;-75
2023/07/06 04:01:59;;;;;;;9.82;8.10;;;16.30;99.90;;;;;;5012735;28;20037;-75
2023/07/06 04:04:28;;;;;;;9.18;8.35;;;16.30;99.90;;;;;;5011830;28;20026;-75
2023/07/06 04:06:57;;;;;;;9.05;7.68;;;16.30;99.90;;;;;;5013044;28;20491;-75
2023/07/06 04:09:25;;;;;;;10.40;8.13;;;16.30;99.90;;;;;;5011958;28;20385;-76
2023/07/06 04:11:54;;;;;;;9.43;7.82;;;16.30;99.90;;;;;;5011841;28;20033;-75
2023/07/06 04:14:24;;;;;;;9.07;7.90;;;16.30;99.90;;;;;;5021568;28;20021;-75
2023/07/06 04:16:51;;;;;;;10.45;8.18;;;16.30;99.90;;;;;;5018709;28;20494;-75
2023/07/06 04:19:17;;;;;;;13.85;9.95;;;16.20;99.90;;;;;;5027494;28;20037;-75
2023/07/06 04:21:44;;;;;;;9.38;7.97;;;16.30;99.90;;;;;;5031443;28;20033;-75
2023/07/06 04:24:10;;;;;;;9.18;7.68;;;16.30;99.90;;;;;;5012718;28;20038;-75
2023/07/06 04:26:36;;;;;;;10.45;7.90;;;16.40;99.90;;;;;;5011549;28;20045;-75
2023/07/06 04:29:03;;;;;;;8.77;7.93;;;16.40;99.90;;;;;;4994756;28;20236;-75
2023/07/06 04:31:29;;;;;;;8.95;7.43;;;16.40;99.90;;;;;;5022009;28;20049;-75
2023/07/06 04:33:55;;;;;;;9.68;8.68;;;16.40;99.90;;;;;;5032494;28;20387;-75
2023/07/06 04:36:21;;;;;;;11.43;10.35;;;16.40;99.90;;;;;;5023006;28;20037;-75
2023/07/06 04:38:47;;;;;;;7.95;7.15;;;16.40;99.90;;;;;;5012606;28;20375;-74
2023/07/06 04:41:14;;;;;;;9.07;8.18;;;16.30;99.90;;;;;;5012702;28;20033;-75
2023/07/06 04:43:40;;;;;;;10.55;8.07;;;16.30;99.90;;;;;;5012025;28;20037;-75
2023/07/06 04:46:07;;;;;;;8.43;7.65;;;16.40;99.90;;;;;;5011052;28;20049;-76
2023/07/06 04:48:33;;;;;;;11.65;10.60;;;16.40;99.90;;;;;;5021024;28;20025;-75
2023/07/06 04:50:59;;;;;;;9.30;8.20;;;16.50;99.90;;;;;;5032125;28;20060;-75
2023/07/06 04:53:25;;;;;;;9.00;8.15;;;16.50;99.90;;;;;;5032203;28;20383;-75
2023/07/06 04:55:52;;;;;;;14.80;13.00;;;16.60;99.90;;;;;;5030898;28;20036;-75
2023/07/06 04:58:18;;;;;;;12.60;11.50;;;16.60;99.90;;;;;;5031689;28;20021;-75
2023/07/06 05:00:45;;;;;;;11.88;10.70;;;16.50;99.90;;;;;;5030629;28;20025;-75
2023/07/06 05:03:12;;;;;;;10.80;9.82;;;16.50;99.90;;;;;;5030934;28;20025;-75
2023/07/06 05:05:43;;;;;;;10.77;9.85;;;16.50;99.90;;;;;;5030467;28;20045;-75
2023/07/06 05:08:13;;;;;;;11.05;8.35;;;16.60;99.90;;;;;;5032165;28;20374;-75
2023/07/06 05:10:39;;;;;;;9.95;9.00;;;16.60;99.90;;;;;;5030710;28;20042;-75
2023/07/06 05:13:06;;;;;;;10.98;9.82;;;16.60;99.90;;;;;;5030403;28;20032;-76
2023/07/06 05:15:32;;;;;;;11.45;10.32;;;16.50;99.90;;;;;;5031693;28;20038;-75
2023/07/06 05:18:01;;;;;;;13.50;12.30;;;16.50;99.90;;;;;;5030736;28;20038;-75
2023/07/06 05:20:28;;;;;;;15.95;14.57;;;16.50;99.90;;;;;;5033960;28;20041;-75
2023/07/06 05:22:54;;;;;;;10.75;9.65;;;16.60;99.90;;;;;;5023240;28;20029;-76
2023/07/06 05:25:20;;;;;;;11.85;8.82;;;16.80;99.90;;;;;;5047245;28;20049;-75
2023/07/06 05:27:47;;;;;;;11.27;10.10;;;16.90;99.90;;;;;;5047429;28;20034;-75
2023/07/06 05:30:13;;;;;;;12.07;10.90;;;17.10;99.90;;;;;;5047456;28;20021;-75
2023/07/06 05:32:39;;;;;;;13.38;12.10;;;17.20;99.90;;;;;;5047687;28;20505;-75
2023/07/06 05:35:06;;;;;;;13.45;12.35;;;17.30;99.90;;;;;;5031005;28;20038;-75
2023/07/06 05:37:33;;;;;;;13.68;12.60;;;17.40;99.90;;;;;;5047543;28;20498;-75
2023/07/06 05:40:03;;;;;;;10.43;8.27;;;17.50;99.90;;;;;;5046620;28;20045;-75
2023/07/06 05:42:29;;;;;;;8.88;7.97;;;17.70;99.90;;;;;;5014215;28;20042;-75
2023/07/06 05:44:55;;;;;;;9.88;7.50;;;18.10;99.90;;;;;;5015594;28;20459;-75
2023/07/06 05:47:21;;;;;;;10.95;8.40;;;18.20;99.90;;;;;;5027371;28;20053;-76
2023/07/06 05:49:47;;;;;;;11.38;8.70;;;18.20;99.90;;;;;;4995969;28;20038;-75
2023/07/06 05:52:13;;;;;;;11.07;9.25;;;18.20;99.90;;;;;;4995869;28;20041;-76
2023/07/06 05:54:39;;;;;;;13.80;9.68;;;18.10;99.90;;;;;;4994251;28;20030;-75
2023/07/06 05:57:06;;;;;;;12.10;9.70;;;18.10;99.90;;;;;;4995851;28;20030;-75
2023/07/06 05:59:32;;;;;;;11.02;9.23;;;18.20;99.90;;;;;;4995924;28;20030;-75
2023/07/06 06:01:59;;;;;;;12.80;9.25;;;18.20;99.90;;;;;;4994268;28;20038;-75
2023/07/06 06:04:28;;;;;;;12.60;8.50;;;18.20;99.90;;;;;;4978389;28;20376;-75
2023/07/06 06:06:56;;;;;;;13.07;8.63;;;18.40;99.90;;;;;;4994429;28;20043;-76
2023/07/06 06:09:25;;;;;;;11.23;8.35;;;18.50;99.90;;;;;;4995947;28;20034;-75
2023/07/06 06:11:51;;;;;;;9.13;8.30;;;18.60;99.90;;;;;;4994289;28;20035;-75
2023/07/06 06:14:18;;;;;;;11.68;8.88;;;18.70;99.90;;;;;;4995443;28;20387;-75
2023/07/06 06:16:44;;;;;;;10.38;9.23;;;18.80;99.90;;;;;;5007987;28;20475;-75
2023/07/06 06:19:10;;;;;;;10.13;9.23;;;18.90;99.90;;;;;;5015042;28;20037;-74
2023/07/06 06:21:36;;;;;;;10.23;9.30;;;18.90;99.90;;;;;;5046866;28;20475;-75
2023/07/06 06:24:03;;;;;;;11.57;10.35;;;18.80;99.90;;;;;;5029818;28;20033;-75
2023/07/06 06:26:29;;;;;;;11.95;10.75;;;18.80;99.90;;;;;;5013605;28;20049;-75
2023/07/06 06:28:57;;;;;;;13.02;11.82;;;18.90;99.90;;;;;;5013744;28;20033;-75
2023/07/06 06:31:24;;;;;;;13.32;12.07;;;19.10;99.90;;;;;;5012444;28;20043;-75
2023/07/06 06:33:50;;;;;;;13.15;11.90;;;19.30;99.90;;;;;;5014711;28;20026;-75
2023/07/06 06:36:17;;;;;;;20.00;12.73;;;19.50;99.90;;;;;;5014445;28;20042;-75
2023/07/06 06:38:43;;;;;;;15.10;13.25;;;19.50;99.90;;;;;;5014455;28;20459;-74
2023/07/06 06:41:10;;;;;;;16.02;14.75;;;19.70;99.90;;;;;;5014594;28;20030;-75
2023/07/06 06:43:44;;;;;;;16.55;14.32;;;19.70;99.90;;;;;;5029667;28;20034;-75
2023/07/06 06:46:11;;;;;;;17.42;15.85;;;19.80;99.90;;;;;;5044807;28;20034;-74
2023/07/06 06:48:39;;;;;;;17.25;15.95;;;20.00;99.90;;;;;;5046198;28;20455;-75
2023/07/06 06:51:07;;;;;;;19.13;17.60;;;20.00;99.90;;;;;;5013453;28;20053;-75
2023/07/06 06:53:34;;;;;;;22.85;21.20;;;20.10;99.90;;;;;;5012776;28;20475;-74
2023/07/06 06:56:04;;;;;;;22.38;20.67;;;20.30;99.90;;;;;;5013384;28;20030;-75
2023/07/06 06:58:30;;;;;;;20.08;18.67;;;20.40;99.90;;;;;;5013194;28;20459;-74
2023/07/06 07:00:58;;;;;;;27.23;25.13;;;20.50;99.90;;;;;;5013711;28;20034;-75
2023/07/06 07:03:25;;;;;;;23.30;21.77;;;20.50;99.90;;;;;;5013072;28;20387;-75
2023/07/06 07:06:11;;;;;;;29.85;28.05;;;20.60;99.90;;;;;;5012953;28;20053;-74
2023/07/06 07:08:44;;;;;;;26.77;24.83;;;20.60;99.90;;;;;;5012687;28;20034;-75
2023/07/06 07:11:11;;;;;;;23.33;21.65;;;20.70;99.90;;;;;;5014101;28;20045;-75
2023/07/06 07:13:37;;;;;;;18.35;17.17;;;20.80;99.90;;;;;;5013027;28;20034;-74
2023/07/06 07:16:05;;;;;;;20.30;18.73;;;20.80;99.90;;;;;;5012556;28;20101;-75
2023/07/06 07:18:32;;;;;;;25.63;24.10;;;20.90;99.90;;;;;;5012291;28;20041;-75
2023/07/06 07:20:58;;;;;;;18.90;17.70;;;21.00;99.90;;;;;;5012636;28;20029;-75
2023/07/06 07:23:25;;;;;;;23.88;22.15;;;21.30;99.90;;;;;;5013472;28;20033;-75
2023/07/06 07:25:51;;;;;;;18.65;17.25;;;21.40;99.90;;;;;;5013602;28;20053;-75
2023/07/06 07:28:17;;;;;;;23.83;22.02;;;21.50;99.90;;;;;;5012598;28;20034;-75
2023/07/06 07:30:54;;;;;;;19.48;17.67;;;21.40;99.90;;;;;;5012107;28;20030;-75
2023/07/06 07:33:20;;;;;;;18.83;17.42;;;21.40;99.90;;;;;;5012445;28;20026;-75
2023/07/06 07:35:46;;;;;;;20.27;18.98;;;21.50;99.90;;;;;;5013053;28;20037;-75
2023/07/06 07:38:12;;;;;;;23.40;21.75;;;21.60;99.90;;;;;;5013632;28;20026;-75
2023/07/06 07:40:39;;;;;;;18.58;17.25;;;21.60;99.90;;;;;;5013468;28;20030;-75
2023/07/06 07:43:07;;;;;;;15.60;14.40;;;21.60;99.90;;;;;;5012738;28;20387;-75
2023/07/06 07:45:33;;;;;;;18.92;17.65;;;21.60;99.90;;;;;;5012722;28;20042;-75
2023/07/06 07:48:00;;;;;;;14.88;13.88;;;21.70;99.90;;;;;;5013369;28;20486;-75
2023/07/06 07:50:26;;;;;;;15.55;14.45;;;21.90;99.90;;;;;;5012871;28;20057;-75
2023/07/06 07:52:52;;;;;;;13.07;12.18;;;22.10;99.90;;;;;;5013281;28;20033;-75
2023/07/06 07:55:20;;;;;;;14.00;12.77;;;22.10;99.90;;;;;;5013174;28;20030;-75
2023/07/06 07:57:46;;;;;;;17.80;16.52;;;22.30;99.90;;;;;;5013309;28;20029;-75
2023/07/06 08:00:12;;;;;;;16.20;15.10;;;22.40;99.90;;;;;;5012553;28;20022;-75
2023/07/06 08:02:38;;;;;;;14.68;13.38;;;22.50;99.90;;;;;;5013151;28;20114;-75
2023/07/06 08:05:09;;;;;;;16.83;15.63;;;22.60;99.90;;;;;;5012817;28;20022;-75
2023/07/06 08:07:35;;;;;;;15.38;14.38;;;22.60;99.90;;;;;;5013013;28;20026;-75
2023/07/06 08:10:01;;;;;;;13.32;12.32;;;22.70;99.90;;;;;;5013102;28;20053;-75
2023/07/06 08:12:27;;;;;;;13.02;11.77;;;22.60;99.90;;;;;;5011700;28;20041;-75
2023/07/06 08:14:53;;;;;;;14.52;13.38;;;22.50;99.90;;;;;;5012968;28;20025;-75
2023/07/06 08:17:19;;;;;;;19.88;18.42;;;22.50;99.90;;;;;;5012497;28;20026;-75
2023/07/06 08:19:45;;;;;;;13.65;12.65;;;22.50;99.90;;;;;;5012538;28;20042;-75
2023/07/06 08:22:11;;;;;;;14.82;13.52;;;22.60;99.90;;;;;;5012812;28;20463;-74
2023/07/06 08:24:38;;;;;;;14.77;13.68;;;22.70;99.90;;;;;;5011694;28;20041;-75
2023/07/06 08:27:04;;;;;;;15.10;13.75;;;22.60;99.90;;;;;;5013137;28;20356;-75
2023/07/06 08:29:31;;;;;;;15.57;14.48;;;22.80;99.90;;;;;;4995617;28;20029;-75
2023/07/06 08:31:59;;;;;;;15.65;14.52;;;23.00;99.90;;;;;;5012013;28;20037;-75
2023/07/06 08:34:26;;;;;;;16.50;15.43;;;23.10;99.90;;;;;;5011259;28;20089;-75
2023/07/06 08:36:53;;;;;;;17.83;16.42;;;23.10;99.90;;;;;;5012402;28;20025;-75
2023/07/06 08:39:19;;;;;;;15.85;14.48;;;23.10;99.90;;;;;;5044317;28;20391;-75
2023/07/06 08:41:45;;;;;;;14.80;13.73;;;23.20;99.90;;;;;;5012652;28;20034;-75
2023/07/06 08:44:13;;;;;;;14.55;13.65;;;23.30;99.90;;;;;;5044355;28;20378;-75
2023/07/06 08:46:41;;;;;;;15.75;14.70;;;23.50;99.90;;;;;;5026934;28;20041;-75
2023/07/06 08:49:30;;;;;;;14.60;13.70;;;23.40;99.90;;;;;;5026386;28;20113;-75
2023/07/06 08:51:57;;;;;;;14.73;13.63;;;23.40;99.90;;;;;;5011471;28;20486;-75
2023/07/06 08:54:24;;;;;;;14.70;13.35;;;23.50;99.90;;;;;;5013294;28;20408;-75
2023/07/06 08:56:50;;;;;;;14.93;13.70;;;23.70;99.90;;;;;;5015620;28;20030;-74
2023/07/06 08:59:32;;;;;;;15.20;14.27;;;23.70;99.90;;;;;;5015485;28;20364;-75
2023/07/06 09:02:03;;;;;;;16.25;15.20;;;23.80;99.90;;;;;;5015044;28;20529;-75
2023/07/06 09:04:29;;;;;;;16.77;15.20;;;24.10;99.90;;;;;;5014728;28;20030;-75
2023/07/06 09:06:56;;;;;;;17.95;16.63;;;24.20;99.80;;;;;;5016281;28;20097;-74
2023/07/06 09:09:23;;;;;;;19.75;18.10;;;24.20;99.50;;;;;;5015287;28;20025;-75
2023/07/06 09:11:50;;;;;;;21.02;19.48;;;24.30;99.50;;;;;;5016259;28;20414;-75
2023/07/06 09:14:17;;;;;;;21.15;19.95;;;24.50;99.00;;;;;;5015033;28;20033;-75
2023/07/06 09:16:48;;;;;;;21.88;20.35;;;24.50;98.40;;;;;;5014608;28;20285;-75
2023/07/06 09:19:14;;;;;;;23.45;21.80;;;24.60;98.60;;;;;;5014879;28;20026;-75
2023/07/06 09:21:44;;;;;;;23.13;21.73;;;24.80;98.00;;;;;;5014799;28;20030;-75
2023/07/06 09:24:11;;;;;;;23.77;21.92;;;24.60;98.80;;;;;;5014849;28;20033;-74
2023/07/06 09:26:38;;;;;;;25.50;23.98;;;24.70;98.30;;;;;;5014772;28;20033;-75
2023/07/06 09:29:18;;;;;;;24.15;22.65;;;24.90;97.50;;;;;;5016091;28;20033;-75
2023/07/06 09:31:45;;;;;;;26.15;24.17;;;24.80;97.50;;;;;;5013823;28;20041;-75
2023/07/06 09:34:27;;;;;;;29.08;27.17;;;24.90;98.10;;;;;;5015461;28;20391;-75
2023/07/06 09:36:53;;;;;;;26.58;24.98;;;25.20;97.60;;;;;;5015563;28;20057;-74
2023/07/06 09:39:19;;;;;;;28.88;27.17;;;25.40;98.00;;;;;;5047450;28;20022;-75
2023/07/06 09:41:46;;;;;;;28.17;26.58;;;25.50;97.30;;;;;;5015837;28;20056;-75
2023/07/06 09:44:41;;;;;;;33.75;31.30;;;25.60;97.40;;;;;;5030632;28;20109;-75
2023/07/06 09:47:11;;;;;;;28.60;26.92;;;25.50;96.80;;;;;;5022396;28;20383;-75
2023/07/06 09:49:44;;;;;;;27.67;25.95;;;25.50;97.00;;;;;;5030389;28;20061;-75
2023/07/06 09:52:11;;;;;;;31.15;29.30;;;25.60;97.00;;;;;;5014351;28;20032;-75
2023/07/06 09:54:50;;;;;;;44.22;41.83;;;25.80;96.90;;;;;;5014407;28;20033;-75
2023/07/06 09:57:16;;;;;;;45.20;42.70;;;26.10;95.30;;;;;;5014392;28;20472;-75
2023/07/06 09:59:46;;;;;;;57.17;54.28;;;26.40;95.00;;;;;;5014162;28;20041;-75
2023/07/06 10:02:24;;;;;;;73.32;69.53;;;26.50;94.30;;;;;;5013257;28;20487;-75
2023/07/06 10:05:05;;;;;;;73.20;69.50;;;26.60;93.20;;;;;;4998532;28;20033;-75
2023/07/06 10:07:36;;;;;;;75.75;71.95;;;26.60;92.40;;;;;;5013888;28;20042;-75
2023/07/06 10:10:14;;;;;;;62.53;59.22;;;26.20;91.20;;;;;;5015753;28;20038;-75
2023/07/06 10:12:48;;;;;;;49.25;46.67;;;26.00;92.10;;;;;;5015061;28;20039;-75
2023/07/06 10:15:38;;;;;;;45.80;43.35;;;25.90;93.20;;;;;;5013198;28;20029;-75
2023/07/06 10:18:09;;;;;;;76.10;72.40;;;26.20;94.10;;;;;;5014007;28;20034;-75
2023/07/06 10:20:38;;;;;;;;;;;26.40;91.90;;;;;;4998329;28;20471;-75
2023/07/06 10:23:15;;;;;;;78.30;74.20;;;26.60;92.10;;;;;;5013629;28;19905;-75
2023/07/06 10:26:02;;;;;;;73.45;69.85;;;26.60;92.00;;;;;;5013509;28;20042;-75
2023/07/06 10:28:38;;;;;;;69.22;65.43;;;26.40;91.20;;;;;;5013745;28;20034;-76
2023/07/06 10:31:06;;;;;;;60.88;57.58;;;26.40;91.80;;;;;;5012852;28;20030;-75
2023/07/06 10:33:59;;;;;;;72.60;69.00;;;26.70;91.50;;;;;;5013514;28;20030;-75
2023/07/06 10:36:31;;;;;;;65.75;62.10;;;26.70;91.60;;;;;;5009184;28;20383;-75
2023/07/06 10:38:58;;;;;;;85.45;81.05;;;26.90;92.10;;;;;;5045512;28;20029;-74
2023/07/06 10:41:45;;;;;;;79.03;74.97;;;26.90;91.00;;;;;;5014670;28;20037;-75
2023/07/06 10:44:55;;;;;;;83.78;79.43;;;26.70;90.60;;;;;;5014689;28;20030;-75
2023/07/06 10:47:37;;;;;;;66.20;62.90;;;26.60;90.30;;;;;;4995642;28;20042;-75
2023/07/06 10:50:14;;;;;;;65.47;61.95;;;26.60;91.20;;;;;;4992202;28;20376;-75
2023/07/06 10:52:43;;;;;;;71.43;67.53;;;26.70;91.40;;;;;;4992771;28;20046;-75
2023/07/06 10:55:18;;;;;;;59.22;56.30;;;27.00;90.90;;;;;;4992094;28;20034;-75
2023/07/06 10:57:57;;;;;;;70.90;67.25;;;27.10;91.70;;;;;;4992523;28;20037;-75
2023/07/06 11:00:31;;;;;;;81.25;77.30;;;27.40;91.00;;;;;;4960559;28;20037;-75
2023/07/06 11:02:59;;;;;;;76.32;72.60;;;27.70;89.70;;;;;;4975899;28;20042;-74
2023/07/06 11:05:26;;;;;;;81.95;77.80;;;27.70;88.80;;;;;;4976341;28;20370;-75
2023/07/06 11:07:53;;;;;;;77.68;73.78;;;27.50;88.80;;;;;;4992260;28;20142;-75
2023/07/06 11:10:21;;;;;;;80.90;76.82;;;27.40;90.00;;;;;;4976252;28;20431;-75
2023/07/06 11:12:57;;;;;;;89.13;84.68;;;27.70;90.00;;;;;;4976345;28;20503;-75
2023/07/06 11:15:35;;;;;;;81.47;77.43;;;27.90;89.00;;;;;;4975590;28;20034;-75
2023/07/06 11:18:18;;;;;;;89.28;84.47;;;27.80;89.40;;;;;;4992321;28;20506;-75
2023/07/06 11:20:47;;;;;;;81.35;77.32;;;28.10;89.50;;;;;;4994365;28;20034;-75
2023/07/06 11:23:15;;;;;;;83.72;79.50;;;28.30;87.80;;;;;;5040037;28;20026;-75
2023/07/06 11:25:41;;;;;;;92.90;88.28;;;28.30;87.40;;;;;;5012551;28;20030;-75
2023/07/06 11:28:10;;;;;;;105.47;100.30;;;28.60;88.00;;;;;;5013426;28;20045;-75
2023/07/06 11:30:54;;;;;;;74.80;70.82;;;28.60;85.60;;;;;;5012049;28;20034;-75
2023/07/06 11:33:27;;;;;;;84.05;79.80;;;28.60;88.80;;;;;;5012358;28;20021;-75
2023/07/06 11:36:18;;;;;;;85.35;81.15;;;28.40;83.80;;;;;;5012325;28;20026;-75
2023/07/06 11:39:08;;;;;;;83.68;79.63;;;28.20;85.30;;;;;;5029141;28;20395;-75
2023/07/06 11:41:54;;;;;;;78.32;74.43;;;28.30;83.30;;;;;;5044045;28;20045;-75
2023/07/06 11:44:45;;;;;;;72.93;69.28;;;28.10;83.50;;;;;;5043282;28;20025;-75
2023/07/06 11:47:35;;;;;;;78.72;74.85;;;27.40;83.10;;;;;;5012866;28;20046;-75
2023/07/06 11:50:03;;;;;;;79.85;75.85;;;27.10;83.60;;;;;;4993028;28;20042;-75
2023/07/06 11:52:34;;;;;;;81.25;77.05;;;27.00;84.10;;;;;;4992418;28;20054;-75
2023/07/06 11:55:06;;;;;;;75.70;71.93;;;27.10;84.80;;;;;;4992450;28;20022;-75
2023/07/06 11:57:44;;;;;;;76.13;72.25;;;27.30;84.10;;;;;;4992729;28;20042;-75
2023/07/06 12:03:10;;;;;;;82.68;78.45;;;27.50;83.30;;;;;;4998920;28;20031;-75
2023/07/06 12:05:41;;;;;;;76.43;72.72;;;27.90;84.50;;;;;;4992531;28;20034;-75
2023/07/06 12:08:14;;;;;;;87.10;82.85;;;28.30;83.10;;;;;;4992297;28;20045;-75
2023/07/06 12:10:40;;;;;;;99.97;94.90;;;28.60;84.80;;;;;;4993399;28;20026;-75
2023/07/06 12:13:16;;;;;;;103.35;98.43;;;28.90;83.70;;;;;;4991727;28;20034;-75
2023/07/06 12:15:42;;;;;;;71.53;68.00;;;29.20;84.40;;;;;;4991839;28;20407;-75
2023/07/06 12:18:09;;;;;;;58.97;55.78;;;29.30;79.90;;;;;;4992221;28;20035;-75
2023/07/06 12:20:35;;;;;;;89.50;84.90;;;29.20;78.30;;;;;;4991916;28;20030;-75
2023/07/06 12:23:01;;;;;;;79.40;75.47;;;28.80;80.20;;;;;;5004407;28;20426;-75
2023/07/06 12:25:28;;;;;;;49.55;46.95;;;28.80;80.10;;;;;;5012826;28;20030;-74
2023/07/06 12:27:58;;;;;;;55.42;52.55;;;28.70;76.20;;;;;;5012612;28;20048;-75
2023/07/06 12:30:29;;;;;;;79.53;75.57;;;28.20;78.10;;;;;;5011078;28;20037;-75
2023/07/06 12:32:55;;;;;;;77.45;73.60;;;28.00;80.30;;;;;;5011539;28;20394;-75
2023/07/06 12:35:21;;;;;;;66.57;63.22;;;27.80;79.90;;;;;;5012776;28;20038;-75
2023/07/06 12:37:48;;;;;;;84.65;80.47;;;27.90;79.10;;;;;;5011317;28;20022;-75
2023/07/06 12:40:19;;;;;;;82.65;78.63;;;27.70;79.50;;;;;;5012163;28;20041;-74
2023/07/06 12:42:45;;;;;;;82.72;78.63;;;27.80;79.00;;;;;;5027728;28;20018;-75
2023/07/06 12:45:14;;;;;;;88.25;83.97;;;27.90;80.80;;;;;;5027181;28;20034;-75
2023/07/06 12:47:40;;;;;;;86.30;81.90;;;28.20;81.20;;;;;;5027473;28;20034;-75